createdAt,value
2022-09-09T00:01:01.392Z,62.35
2022-09-09T00:04:04.143Z,61.96
2022-09-09T00:06:45.302Z,60.66
2022-09-09T00:09:22.167Z,60.93
2022-09-09T00:11:59.538Z,60.77
2022-09-09T00:14:56.161Z,60.31
2022-09-09T00:17:44.222Z,60.01
2022-09-09T00:20:36.594Z,59.01
2022-09-09T00:23:37.708Z,59.33
2022-09-09T00:26:18.733Z,58.74
2022-09-09T00:29:09.575Z,58.24
2022-09-09T00:31:40.565Z,57.96
2022-09-09T00:34:22.621Z,58.11
2022-09-09T00:36:53.316Z,58.17
2022-09-09T00:39:42.875Z,59.24
2022-09-09T00:42:27.640Z,62.27
2022-09-09T00:49:05.398Z,64.91
2022-09-09T00:51:54.901Z,66.77
2022-09-09T00:54:44.167Z,66.34
2022-09-09T00:57:29.680Z,63.10
2022-09-09T01:00:25.618Z,63.76
2022-09-09T01:03:49.216Z,62.19
2022-09-09T01:06:32.454Z,64.89
2022-09-09T01:09:19.430Z,65.60
2022-09-09T01:12:28.007Z,65.71
2022-09-09T01:15:13.764Z,67.34
2022-09-09T01:18:02.444Z,67.79
2022-09-09T01:20:58.468Z,67.31
2022-09-09T01:24:08.583Z,68.45
2022-09-09T01:26:55.992Z,68.58
2022-09-09T01:29:27.109Z,68.48
2022-09-09T01:32:02.345Z,69.13
2022-09-09T01:34:39.991Z,69.64
2022-09-09T01:37:14.130Z,69.56
2022-09-09T01:39:45.938Z,69.88
2022-09-09T01:42:18.538Z,70.72
2022-09-09T01:44:46.979Z,70.82
2022-09-09T01:47:16.664Z,70.86
2022-09-09T01:50:00.611Z,71.65
2022-09-09T01:52:32.666Z,71.91
2022-09-09T01:55:00.634Z,71.74
2022-09-09T01:58:10.489Z,72.48
2022-09-09T02:00:55.489Z,67.69
2022-09-09T02:03:29.482Z,63.21
2022-09-09T02:06:11.916Z,63.12
2022-09-09T02:08:48.239Z,62.19
2022-09-09T02:11:23.285Z,62.63
2022-09-09T02:14:17.104Z,61.55
2022-09-09T02:17:10.542Z,61.66
2022-09-09T02:20:13.940Z,61.89
2022-09-09T02:23:11.110Z,61.75
2022-09-09T02:25:40.185Z,61.34
2022-09-09T02:28:22.328Z,61.06
2022-09-09T02:30:56.222Z,60.77
2022-09-09T02:33:41.185Z,60.83
2022-09-09T02:36:11.982Z,61.01
2022-09-09T02:38:51.601Z,61.11
2022-09-09T02:41:31.747Z,61.34
2022-09-09T02:43:59.591Z,61.38
2022-09-09T02:47:05.805Z,60.70
2022-09-09T02:49:50.575Z,60.81
2022-09-09T02:52:49.222Z,61.29
2022-09-09T02:55:56.576Z,61.04
2022-09-09T02:58:25.192Z,61.54
2022-09-09T03:00:59.284Z,61.63
2022-09-09T03:03:28.149Z,61.92
2022-09-09T03:05:57.950Z,61.17
2022-09-09T03:08:28.666Z,61.78
2022-09-09T03:11:02.384Z,61.50
2022-09-09T03:13:33.235Z,61.62
2022-09-09T03:16:00.937Z,61.84
2022-09-09T03:18:31.347Z,62.53
2022-09-09T03:21:00.621Z,61.98
2022-09-09T03:23:29.117Z,61.31
2022-09-09T03:25:59.747Z,61.58
2022-09-09T03:28:36.839Z,61.69
2022-09-09T03:31:06.668Z,62.35
2022-09-09T03:33:39.937Z,62.87
2022-09-09T03:36:09.562Z,62.45
2022-09-09T03:38:37.440Z,62.81
2022-09-09T03:41:08.845Z,63.64
2022-09-09T03:43:37.485Z,63.93
2022-09-09T03:46:05.892Z,64.74
2022-09-09T03:48:33.860Z,64.69
2022-09-09T03:51:02.491Z,65.24
2022-09-09T03:53:32.978Z,65.72
2022-09-09T03:56:01.757Z,66.15
2022-09-09T03:58:31.449Z,66.81
2022-09-09T04:01:15.834Z,67.49
2022-09-09T04:03:45.757Z,67.73
2022-09-09T04:06:15.723Z,68.64
2022-09-09T04:08:46.292Z,69.44
2022-09-09T04:11:17.031Z,71.45
2022-09-09T04:13:45.965Z,73.32
2022-09-09T04:16:15.793Z,78.12
2022-09-09T04:18:45.354Z,80.51
2022-09-09T04:21:16.414Z,83.79
2022-09-09T04:23:44.024Z,86.63
2022-09-09T04:26:12.081Z,90.51
2022-09-09T04:28:40.466Z,92.65
2022-09-09T04:31:21.226Z,93.73
2022-09-09T04:33:53.894Z,93.74
2022-09-09T04:36:22.641Z,94.26
2022-09-09T04:38:52.691Z,95.65
2022-09-09T04:41:20.761Z,97.23
2022-09-09T04:43:53.320Z,98.15
2022-09-09T04:46:23.921Z,98.32
2022-09-09T04:48:53.762Z,98.75
2022-09-09T04:51:23.664Z,99.13
2022-09-09T04:53:55.065Z,100.00
2022-09-09T04:56:23.114Z,100.00
2022-09-09T04:58:56.846Z,100.00
2022-09-09T05:01:33.359Z,100.00
2022-09-09T05:04:04.905Z,100.00
2022-09-09T05:06:34.738Z,100.00
2022-09-09T05:09:02.931Z,100.00
2022-09-09T05:11:37.017Z,100.00
2022-09-09T05:14:13.178Z,100.00
2022-09-09T05:16:42.009Z,100.00
2022-09-09T05:19:10.044Z,100.00
2022-09-09T05:21:45.201Z,100.00
2022-09-09T05:24:13.840Z,100.00
2022-09-09T05:26:42.469Z,100.00
2022-09-09T05:29:10.243Z,100.00
2022-09-09T05:31:38.131Z,100.00
2022-09-09T05:34:10.768Z,100.00
2022-09-09T05:36:38.665Z,100.00
2022-09-09T05:39:07.191Z,100.00
2022-09-09T05:41:37.017Z,100.00
2022-09-09T05:44:06.552Z,100.00
2022-09-09T05:46:39.213Z,100.00
2022-09-09T05:49:07.347Z,100.00
2022-09-09T05:51:36.240Z,100.00
2022-09-09T05:54:08.898Z,100.00
2022-09-09T05:56:41.157Z,100.00
2022-09-09T05:59:10.277Z,100.00
2022-09-09T06:01:43.370Z,100.00
2022-09-09T06:04:19.469Z,100.00
2022-09-09T06:06:47.186Z,100.00
2022-09-09T06:09:18.563Z,100.00
2022-09-09T06:11:46.724Z,100.00
2022-09-09T06:14:15.817Z,100.00
2022-09-09T06:16:47.196Z,100.00
2022-09-09T06:19:20.662Z,99.59
2022-09-09T06:21:50.134Z,99.71
2022-09-09T06:24:20.403Z,98.98
2022-09-09T06:26:48.064Z,98.26
2022-09-09T06:29:22.107Z,98.00
2022-09-09T06:31:50.073Z,97.60
2022-09-09T06:34:22.652Z,97.84
2022-09-09T06:36:58.839Z,96.91
2022-09-09T06:39:33.863Z,94.96
2022-09-09T06:42:01.928Z,94.09
2022-09-09T06:44:51.403Z,93.39
2022-09-09T06:47:28.924Z,94.33
2022-09-09T06:49:59.439Z,93.22
2022-09-09T06:52:27.712Z,94.02
2022-09-09T06:54:59.053Z,94.29
2022-09-09T06:57:36.972Z,94.29
2022-09-09T07:00:10.582Z,95.17
2022-09-09T07:02:40.131Z,95.83
2022-09-09T07:05:09.511Z,96.25
2022-09-09T07:07:37.915Z,97.03
2022-09-09T07:10:06.812Z,98.23
2022-09-09T07:12:38.735Z,98.60
2022-09-09T07:15:10.826Z,99.47
2022-09-09T07:17:40.564Z,100.00
2022-09-09T07:20:08.853Z,99.72
2022-09-09T07:22:36.420Z,100.00
2022-09-09T07:25:05.572Z,100.00
2022-09-09T07:27:33.423Z,100.00
2022-09-09T07:30:01.018Z,100.00
2022-09-09T07:32:28.926Z,99.94
2022-09-09T07:34:57.104Z,100.00
2022-09-09T07:37:25.412Z,100.00
2022-09-09T07:39:54.370Z,99.69
2022-09-09T07:42:22.040Z,99.67
2022-09-09T07:44:50.677Z,98.86
2022-09-09T07:47:18.411Z,98.61
2022-09-09T07:49:50.887Z,98.89
2022-09-09T07:52:23.772Z,99.21
2022-09-09T07:54:57.472Z,98.98
2022-09-09T07:57:25.648Z,100.00
2022-09-09T07:59:54.609Z,100.00
2022-09-09T08:02:22.515Z,100.00
2022-09-09T08:04:52.616Z,99.15
2022-09-09T08:07:22.528Z,99.34
2022-09-09T08:09:56.679Z,100.00
2022-09-09T08:12:28.877Z,100.00
2022-09-09T08:14:58.229Z,100.00
2022-09-09T08:17:30.095Z,100.00
2022-09-09T08:20:04.354Z,99.09
2022-09-09T08:22:32.351Z,97.45
2022-09-09T08:25:01.434Z,98.86
2022-09-09T08:27:29.033Z,98.98
2022-09-09T08:29:57.055Z,98.17
2022-09-09T08:32:25.123Z,98.34
2022-09-09T08:34:54.613Z,97.30
2022-09-09T08:37:24.713Z,96.18
2022-09-09T08:39:54.294Z,96.78
2022-09-09T08:42:39.172Z,94.02
2022-09-09T08:45:36.678Z,90.91
2022-09-09T08:48:53.365Z,90.68
2022-09-09T08:51:22.154Z,87.32
2022-09-09T08:53:54.485Z,87.31
2022-09-09T08:56:27.972Z,86.10
2022-09-09T08:59:03.870Z,84.99
2022-09-09T09:01:54.143Z,83.71
2022-09-09T09:05:06.002Z,82.55
2022-09-09T09:08:25.890Z,83.40
2022-09-09T09:10:58.562Z,83.28
2022-09-09T09:14:06.062Z,82.12
2022-09-09T09:16:57.313Z,81.26
2022-09-09T09:19:27.359Z,82.37
2022-09-09T09:22:21.150Z,81.34
2022-09-09T09:25:19.834Z,81.20
2022-09-09T09:28:06.941Z,80.56
2022-09-09T09:30:58.927Z,79.23
2022-09-09T09:33:45.551Z,80.55
2022-09-09T09:36:16.227Z,80.61
2022-09-09T09:41:47.219Z,77.90
2022-09-09T09:44:32.985Z,79.28
2022-09-09T09:47:19.672Z,79.03
2022-09-09T09:50:00.581Z,77.21
2022-09-09T09:52:35.663Z,76.73
2022-09-09T09:55:13.470Z,76.44
2022-09-09T09:57:41.635Z,77.82
2022-09-09T10:00:19.692Z,79.04
2022-09-09T10:02:55.301Z,80.16
2022-09-09T10:05:35.160Z,78.92
2022-09-09T10:08:20.787Z,78.67
2022-09-09T10:11:32.782Z,78.43
2022-09-09T10:14:23.221Z,78.39
2022-09-09T10:17:21.991Z,79.40
2022-09-09T10:20:34.412Z,79.39
2022-09-09T10:24:08.635Z,76.71
2022-09-09T10:27:03.679Z,77.23
2022-09-09T10:29:46.040Z,76.71
2022-09-09T10:32:35.245Z,76.21
2022-09-09T10:35:20.906Z,74.43
2022-09-09T10:38:09.649Z,74.39
2022-09-09T10:40:56.501Z,73.97
2022-09-09T10:43:57.406Z,73.75
2022-09-09T10:46:55.128Z,72.14
2022-09-09T10:49:50.731Z,71.95
2022-09-09T10:52:36.332Z,71.83
2022-09-09T10:55:16.234Z,70.74
2022-09-09T10:57:56.920Z,69.74
2022-09-09T11:00:32.049Z,69.97
2022-09-09T11:03:05.235Z,68.01
2022-09-09T11:05:51.096Z,68.04
2022-09-09T11:08:31.733Z,67.51
2022-09-09T11:11:01.042Z,67.33
2022-09-09T11:13:38.414Z,65.89
2022-09-09T11:17:10.176Z,66.54
2022-09-09T11:19:42.033Z,65.92
2022-09-09T11:22:37.702Z,66.04
2022-09-09T11:25:20.207Z,66.41
2022-09-09T11:27:56.886Z,68.00
2022-09-09T11:30:51.698Z,67.90
2022-09-09T11:33:42.604Z,67.07
2022-09-09T11:36:35.745Z,67.48
2022-09-09T11:39:48.978Z,68.10
2022-09-09T11:42:25.810Z,66.44
2022-09-09T11:44:57.938Z,65.40
2022-09-09T11:47:31.037Z,66.88
2022-09-09T11:50:16.674Z,64.31
2022-09-09T11:52:49.553Z,64.49
2022-09-09T11:55:37.206Z,65.31
2022-09-09T11:58:16.378Z,65.52
2022-09-09T12:00:49.851Z,64.91
2022-09-09T12:04:23.110Z,63.48
2022-09-09T12:06:57.178Z,62.59
2022-09-09T12:09:47.228Z,59.77
2022-09-09T12:12:15.196Z,58.93
2022-09-09T12:14:42.876Z,58.43
2022-09-09T12:17:16.210Z,57.46
2022-09-09T12:19:44.095Z,57.59
2022-09-09T12:22:24.277Z,56.53
2022-09-09T12:25:20.262Z,56.40
2022-09-09T12:28:05.708Z,54.76
2022-09-09T12:30:57.247Z,54.64
2022-09-09T12:33:25.818Z,53.32
2022-09-09T12:35:58.076Z,52.78
2022-09-09T12:38:42.440Z,50.62
2022-09-09T12:41:26.731Z,48.99
2022-09-09T12:44:11.150Z,48.99
2022-09-09T12:46:46.063Z,49.08
2022-09-09T12:49:35.394Z,48.88
2022-09-09T12:52:22.104Z,48.92
2022-09-09T12:54:52.216Z,48.58
2022-09-09T12:57:20.199Z,49.53
2022-09-09T12:59:49.177Z,48.83
2022-09-09T13:02:29.082Z,50.18
2022-09-09T13:05:17.969Z,51.29
2022-09-09T13:07:45.665Z,52.16
2022-09-09T13:10:36.668Z,52.14
2022-09-09T13:13:36.268Z,52.84
2022-09-09T13:16:08.254Z,54.47
2022-09-09T13:18:41.559Z,54.20
2022-09-09T13:21:09.448Z,55.19
2022-09-09T13:23:39.305Z,56.74
2022-09-09T13:26:27.929Z,57.32
2022-09-09T13:28:56.983Z,56.94
2022-09-09T13:31:32.720Z,57.83
2022-09-09T13:34:01.056Z,57.84
2022-09-09T13:36:35.853Z,57.79
2022-09-09T13:39:05.200Z,54.81
2022-09-09T13:41:35.874Z,54.45
2022-09-09T13:44:07.601Z,53.29
2022-09-09T13:46:43.435Z,51.65
2022-09-09T13:49:11.121Z,49.68
2022-09-09T13:52:13.006Z,47.67
2022-09-09T13:54:42.865Z,47.91
2022-09-09T13:57:26.301Z,48.18
2022-09-09T14:00:06.316Z,44.78
2022-09-09T14:02:34.934Z,42.52
2022-09-09T14:05:02.799Z,43.21
2022-09-09T14:07:30.459Z,43.90
2022-09-09T14:09:58.272Z,42.90
2022-09-09T14:12:25.934Z,43.07
2022-09-09T14:14:53.403Z,43.47
2022-09-09T14:17:21.148Z,42.41
2022-09-09T14:19:48.743Z,41.84
2022-09-09T14:22:16.255Z,41.42
2022-09-09T14:24:44.042Z,39.22
2022-09-09T14:27:11.654Z,39.02
2022-09-09T14:29:39.168Z,38.86
2022-09-09T14:32:11.954Z,38.88
2022-09-09T14:34:40.186Z,38.25
2022-09-09T14:37:07.957Z,38.01
2022-09-09T14:39:35.468Z,37.90
2022-09-09T14:42:03.381Z,37.53
2022-09-09T14:44:31.148Z,36.49
2022-09-09T14:46:59.593Z,36.61
2022-09-09T14:49:26.895Z,36.39
2022-09-09T14:51:55.317Z,35.53
2022-09-09T14:54:24.031Z,35.42
2022-09-09T14:56:51.537Z,35.65
2022-09-09T14:59:19.250Z,34.88
2022-09-09T15:01:46.810Z,35.18
2022-09-09T15:04:21.413Z,34.41
2022-09-09T15:06:50.844Z,34.48
2022-09-09T15:09:18.296Z,33.49
2022-09-09T15:11:46.132Z,33.39
2022-09-09T15:14:13.965Z,33.39
2022-09-09T15:16:41.814Z,33.31
2022-09-09T15:19:10.293Z,32.33
2022-09-09T15:21:39.472Z,32.80
2022-09-09T15:24:09.442Z,32.54
2022-09-09T15:26:39.502Z,32.81
2022-09-09T15:29:09.098Z,33.34
2022-09-09T15:31:38.285Z,33.52
2022-09-09T15:34:08.462Z,32.80
2022-09-09T15:36:36.075Z,33.08
2022-09-09T15:39:08.073Z,32.45
2022-09-09T15:41:35.733Z,32.12
2022-09-09T15:44:03.708Z,32.60
2022-09-09T15:46:39.938Z,32.84
2022-09-09T15:49:10.321Z,32.44
2022-09-09T15:51:43.507Z,32.21
2022-09-09T15:54:18.502Z,32.24
2022-09-09T15:56:49.816Z,32.15
2022-09-09T15:59:17.657Z,32.36
2022-09-09T16:01:45.447Z,31.84
2022-09-09T16:04:13.196Z,32.28
2022-09-09T16:06:41.185Z,32.48
2022-09-09T16:09:09.319Z,32.73
2022-09-09T16:11:39.196Z,32.13
2022-09-09T16:14:07.684Z,32.47
2022-09-09T16:16:36.306Z,32.30
2022-09-09T16:19:12.542Z,32.32
2022-09-09T16:21:47.512Z,32.57
2022-09-09T16:24:19.607Z,32.89
2022-09-09T16:26:55.377Z,33.86
2022-09-09T16:29:24.899Z,34.89
2022-09-09T16:31:52.870Z,36.08
2022-09-09T16:34:20.821Z,37.26
2022-09-09T16:36:49.552Z,39.30
2022-09-09T16:39:21.711Z,41.12
2022-09-09T16:41:51.090Z,42.56
2022-09-09T16:44:20.460Z,43.93
2022-09-09T16:46:56.678Z,45.90
2022-09-09T16:49:29.231Z,47.40
2022-09-09T16:51:59.870Z,49.36
2022-09-09T16:54:28.103Z,50.41
2022-09-09T16:56:56.224Z,51.83
2022-09-09T16:59:24.541Z,52.77
2022-09-09T17:01:53.308Z,53.73
2022-09-09T17:04:26.428Z,55.01
2022-09-09T17:06:55.844Z,55.99
2022-09-09T17:09:29.753Z,57.59
2022-09-09T17:11:57.701Z,58.20
2022-09-09T17:14:25.527Z,58.88
2022-09-09T17:16:53.288Z,58.96
2022-09-09T17:19:21.061Z,59.28
2022-09-09T17:24:39.402Z,60.85
2022-09-09T17:27:08.068Z,61.32
2022-09-09T17:29:37.069Z,61.68
2022-09-09T17:32:06.438Z,61.54
2022-09-09T17:34:35.706Z,62.12
2022-09-09T17:37:05.212Z,62.24
2022-09-09T17:39:33.309Z,62.81
2022-09-09T17:42:01.059Z,62.79
2022-09-09T17:44:29.909Z,62.91
2022-09-09T17:46:57.483Z,63.75
2022-09-09T17:49:25.180Z,63.40
2022-09-09T17:51:52.798Z,63.17
2022-09-09T17:54:21.239Z,63.25
2022-09-09T17:56:50.044Z,63.09
2022-09-09T17:59:19.437Z,62.81
2022-09-09T18:01:49.630Z,62.88
2022-09-09T18:04:19.101Z,62.88
2022-09-09T18:06:51.086Z,63.41
2022-09-09T18:09:23.543Z,62.80
2022-09-09T18:11:58.067Z,63.77
2022-09-09T18:14:31.138Z,63.58
2022-09-09T18:17:00.740Z,64.15
2022-09-09T18:19:32.894Z,63.36
2022-09-09T18:22:02.771Z,63.31
2022-09-09T18:24:31.476Z,63.62
2022-09-09T18:26:59.086Z,63.75
2022-09-09T18:29:26.816Z,63.56
2022-09-09T18:31:55.740Z,63.72
2022-09-09T18:34:25.976Z,63.66
2022-09-09T18:36:55.814Z,63.34
2022-09-09T18:39:29.901Z,63.82
2022-09-09T18:42:01.388Z,64.07
2022-09-09T18:44:33.944Z,63.96
2022-09-09T18:47:01.912Z,64.71
2022-09-09T18:49:30.195Z,64.22
2022-09-09T18:51:57.937Z,64.30
2022-09-09T18:54:30.196Z,64.30
2022-09-09T18:57:00.780Z,63.91
2022-09-09T18:59:28.463Z,63.98
2022-09-09T19:01:56.262Z,63.99
2022-09-09T19:04:27.273Z,64.26
2022-09-09T19:06:58.952Z,65.28
2022-09-09T19:09:31.638Z,66.50
2022-09-09T19:12:01.260Z,67.59
2022-09-09T19:14:30.056Z,68.60
2022-09-09T19:16:57.977Z,69.46
2022-09-09T19:19:30.639Z,70.54
2022-09-09T19:21:59.163Z,72.36
2022-09-09T19:24:30.673Z,73.55
2022-09-09T19:27:05.652Z,74.68
2022-09-09T19:29:36.838Z,75.44
2022-09-09T19:32:52.237Z,75.70
2022-09-09T19:35:11.220Z,74.92
2022-09-09T19:37:39.102Z,75.49
2022-09-09T19:40:08.185Z,76.38
2022-09-09T19:42:35.937Z,78.49
2022-09-09T19:45:03.893Z,80.58
2022-09-09T19:47:31.359Z,81.95
2022-09-09T19:49:59.069Z,84.42
2022-09-09T19:52:26.873Z,85.25
2022-09-09T19:54:55.047Z,86.06
2022-09-09T19:57:23.727Z,86.56
2022-09-09T19:59:51.159Z,88.24
2022-09-09T20:02:18.741Z,85.94
2022-09-09T20:04:46.530Z,84.89
2022-09-09T20:07:15.005Z,85.19
2022-09-09T20:09:42.802Z,85.35
2022-09-09T20:12:10.612Z,85.86
2022-09-09T20:14:39.886Z,85.88
2022-09-09T20:17:10.089Z,85.85
2022-09-09T20:19:39.751Z,85.90
2022-09-09T20:22:07.405Z,86.57
2022-09-09T20:24:36.425Z,86.64
2022-09-09T20:27:04.417Z,87.30
2022-09-09T20:29:31.829Z,88.64
2022-09-09T20:31:59.289Z,89.13
2022-09-09T20:34:28.470Z,89.34
2022-09-09T20:36:59.041Z,90.24
2022-09-09T20:39:27.858Z,88.59
2022-09-09T20:41:55.414Z,88.71
2022-09-09T20:44:24.824Z,87.66
2022-09-09T20:47:02.758Z,88.54
2022-09-09T20:49:30.584Z,88.40
2022-09-09T20:51:58.101Z,88.25
2022-09-09T20:54:28.090Z,88.07
2022-09-09T20:56:56.322Z,88.19
2022-09-09T20:59:26.971Z,87.94
2022-09-09T21:01:56.882Z,88.19
2022-09-09T21:04:26.148Z,88.33
2022-09-09T21:06:53.994Z,88.81
2022-09-09T21:09:24.671Z,89.23
2022-09-09T21:11:53.696Z,88.90
2022-09-09T21:14:22.370Z,88.65
2022-09-09T21:16:50.297Z,88.58
2022-09-09T21:19:18.690Z,88.50
2022-09-09T21:21:47.760Z,89.20
2022-09-09T21:24:15.671Z,89.61
2022-09-09T21:26:43.522Z,90.20
2022-09-09T21:29:11.214Z,90.62
2022-09-09T21:31:38.796Z,91.25
2022-09-09T21:34:07.229Z,92.01
2022-09-09T21:36:34.777Z,91.92
2022-09-09T21:39:02.259Z,91.74
2022-09-09T21:41:30.218Z,92.19
2022-09-09T21:43:57.797Z,91.84
2022-09-09T21:46:27.139Z,92.67
2022-09-09T21:48:58.135Z,92.76
2022-09-09T21:51:26.847Z,92.91
2022-09-09T21:53:57.587Z,93.29
2022-09-09T21:56:26.865Z,93.26
2022-09-09T21:58:58.606Z,93.22
2022-09-09T22:01:26.857Z,93.61
2022-09-09T22:03:54.662Z,93.80
2022-09-09T22:06:22.281Z,93.89
2022-09-09T22:08:50.082Z,93.71
2022-09-09T22:11:23.076Z,94.63
2022-09-09T22:13:52.735Z,94.48
2022-09-09T22:16:23.492Z,94.37
2022-09-09T22:18:59.074Z,93.84
2022-09-09T22:21:31.021Z,93.35
2022-09-09T22:24:04.654Z,92.76
2022-09-09T22:26:36.383Z,91.95
2022-09-09T22:29:06.925Z,92.46
2022-09-09T22:31:35.232Z,92.13
2022-09-09T22:34:03.633Z,92.11
2022-09-09T22:36:31.928Z,92.03
2022-09-09T22:39:00.042Z,92.23
2022-09-09T22:41:30.048Z,92.45
2022-09-09T22:43:59.130Z,92.42
2022-09-09T22:46:26.859Z,93.06
2022-09-09T22:48:54.548Z,92.98
2022-09-09T22:51:22.322Z,93.00
2022-09-09T22:53:50.088Z,93.14
2022-09-09T22:56:20.208Z,93.23
2022-09-09T22:58:52.501Z,94.16
2022-09-09T23:01:20.993Z,94.71
2022-09-09T23:03:50.929Z,94.98
2022-09-09T23:06:24.782Z,95.70
2022-09-09T23:08:56.618Z,95.71
2022-09-09T23:11:34.602Z,95.72
2022-09-09T23:14:05.144Z,96.05
2022-09-09T23:16:39.728Z,96.91
2022-09-09T23:19:11.597Z,96.48
2022-09-09T23:21:40.984Z,96.59
2022-09-09T23:24:12.031Z,96.49
2022-09-09T23:26:41.798Z,96.62
2022-09-09T23:29:14.861Z,96.65
2022-09-09T23:31:46.390Z,96.80
2022-09-09T23:34:16.002Z,95.91
2022-09-09T23:36:43.956Z,96.12
2022-09-09T23:39:13.283Z,96.57
2022-09-09T23:41:41.263Z,95.52
2022-09-09T23:44:09.024Z,95.85
2022-09-09T23:46:36.614Z,95.76
2022-09-09T23:49:23.506Z,94.85
2022-09-09T23:51:51.008Z,94.72
2022-09-09T23:54:18.990Z,94.62
2022-09-09T23:56:46.864Z,94.72
2022-09-09T23:59:14.326Z,94.01
